Time;durP1;ratioP1;P1;durP2;ratioP2;P2;SDS_P1;SDS_P2;PMS_P1;PMS_P2;Temp;Humidity;BMP_temperature;BMP_pressure;BME280_temperature;BME280_humidity;BME280_pressure;Samples;Min_cycle;Max_cycle;Signal;HPM_P1;HPM_P2
2021/01/06 00:01:32;;;;;;;23.60;15.35;;;4.00;99.90;;;;;;4939812;29;20032;-89
2021/01/06 00:03:58;;;;;;;22.23;15.73;;;4.10;99.90;;;;;;4931634;29;20027;-88
2021/01/06 00:06:28;;;;;;;22.58;14.88;;;4.10;99.90;;;;;;4944916;28;20023;-88
2021/01/06 00:08:54;;;;;;;24.52;14.25;;;4.10;99.90;;;;;;4945330;29;20012;-89
2021/01/06 00:11:22;;;;;;;22.45;13.77;;;4.00;99.90;;;;;;4945941;28;20039;-86
2021/01/06 00:13:49;;;;;;;25.20;14.45;;;4.10;99.90;;;;;;4945665;28;20020;-88
2021/01/06 00:16:17;;;;;;;19.63;13.48;;;4.10;99.90;;;;;;4944903;28;20050;-90
2021/01/06 00:18:42;;;;;;;20.95;13.93;;;4.10;99.90;;;;;;4941746;29;20054;-89
2021/01/06 00:21:11;;;;;;;19.08;12.95;;;4.00;99.90;;;;;;4938118;29;20027;-90
2021/01/06 00:23:39;;;;;;;21.05;13.30;;;4.00;99.90;;;;;;4913963;29;20536;-89
2021/01/06 00:26:05;;;;;;;23.63;14.20;;;3.90;99.90;;;;;;4944930;29;20130;-89
2021/01/06 00:28:31;;;;;;;19.30;12.70;;;3.90;99.90;;;;;;4943721;29;20043;-89
2021/01/06 00:30:58;;;;;;;20.55;13.30;;;3.90;99.90;;;;;;4928238;29;20032;-88
2021/01/06 00:33:28;;;;;;;21.48;13.32;;;3.90;99.90;;;;;;4929597;29;20136;-88
2021/01/06 00:36:01;;;;;;;18.85;13.02;;;3.90;99.90;;;;;;4925358;29;20071;-89
2021/01/06 00:38:29;;;;;;;19.92;12.55;;;3.90;99.90;;;;;;4940416;29;20472;-89
2021/01/06 00:40:55;;;;;;;19.13;13.10;;;3.90;99.90;;;;;;4922850;29;20030;-88
2021/01/06 00:43:21;;;;;;;18.25;12.48;;;3.80;99.90;;;;;;4922935;29;20078;-87
2021/01/06 00:45:47;;;;;;;20.35;12.05;;;3.90;99.90;;;;;;4923579;29;20478;-88
2021/01/06 00:48:13;;;;;;;19.77;13.70;;;3.90;99.90;;;;;;4923323;29;20078;-88
2021/01/06 00:50:41;;;;;;;25.38;13.77;;;4.00;99.90;;;;;;4941349;29;20028;-89
2021/01/06 00:53:23;;;;;;;17.52;12.45;;;3.90;99.90;;;;;;4926726;29;20036;-88
2021/01/06 00:55:52;;;;;;;19.75;12.98;;;3.90;99.90;;;;;;4929909;29;20032;-88
2021/01/06 00:58:18;;;;;;;18.23;13.02;;;3.90;99.90;;;;;;4945673;29;20083;-89
2021/01/06 01:00:45;;;;;;;18.17;12.40;;;3.80;99.90;;;;;;4928601;29;20036;-87
2021/01/06 01:03:12;;;;;;;21.15;13.93;;;3.80;99.90;;;;;;4940070;29;20114;-89
2021/01/06 01:05:38;;;;;;;18.30;13.45;;;3.80;99.90;;;;;;4922799;29;20517;-89
2021/01/06 01:08:06;;;;;;;22.05;13.98;;;3.80;99.90;;;;;;4924378;29;20032;-89
2021/01/06 01:10:33;;;;;;;19.95;13.52;;;3.80;99.90;;;;;;4940817;29;20024;-89
2021/01/06 01:13:15;;;;;;;19.08;13.65;;;3.70;99.90;;;;;;4923355;29;20035;-88
2021/01/06 01:15:41;;;;;;;24.33;14.00;;;3.70;99.90;;;;;;4923740;29;20035;-88
2021/01/06 01:18:12;;;;;;;20.55;13.30;;;3.70;99.90;;;;;;4906701;29;20031;-90
2021/01/06 01:20:46;;;;;;;19.25;13.80;;;3.70;99.90;;;;;;4922377;29;20031;-88
2021/01/06 01:23:16;;;;;;;23.98;14.98;;;3.70;99.90;;;;;;4922504;29;20381;-88
2021/01/06 01:25:45;;;;;;;26.90;15.90;;;3.60;99.90;;;;;;4939274;29;20562;-88
2021/01/06 01:28:12;;;;;;;21.38;14.65;;;3.60;99.90;;;;;;4939555;29;20032;-88
2021/01/06 01:30:38;;;;;;;20.55;13.93;;;3.60;99.90;;;;;;4937822;29;20032;-87
2021/01/06 01:33:04;;;;;;;31.65;17.67;;;3.60;99.90;;;;;;4922163;29;20479;-88
2021/01/06 01:35:31;;;;;;;28.33;15.65;;;3.60;99.90;;;;;;4923882;29;20043;-89
2021/01/06 01:37:59;;;;;;;25.70;15.95;;;3.50;99.90;;;;;;4928265;29;20096;-89
2021/01/06 01:40:30;;;;;;;22.60;14.90;;;3.50;99.90;;;;;;4950908;29;20024;-88
2021/01/06 01:43:08;;;;;;;23.35;16.25;;;3.50;99.90;;;;;;4923705;29;20024;-89
2021/01/06 01:45:46;;;;;;;30.92;15.60;;;3.50;99.90;;;;;;4921833;29;20370;-88
2021/01/06 01:48:30;;;;;;;24.35;16.25;;;3.50;99.90;;;;;;4922062;29;20512;-89
2021/01/06 01:51:01;;;;;;;23.38;14.95;;;3.40;99.90;;;;;;4927232;29;20123;-88
2021/01/06 01:53:39;;;;;;;27.98;15.30;;;3.50;99.90;;;;;;4938186;29;20047;-89
2021/01/06 01:56:08;;;;;;;25.95;15.13;;;3.50;99.90;;;;;;4938143;29;20063;-87
2021/01/06 01:58:35;;;;;;;26.00;16.35;;;3.40;99.90;;;;;;4953992;28;20062;-88
2021/01/06 02:01:03;;;;;;;25.08;15.40;;;3.40;99.90;;;;;;4946516;29;20055;-88
2021/01/06 02:03:34;;;;;;;24.38;15.23;;;3.40;99.90;;;;;;4921999;29;20032;-87
2021/01/06 02:06:26;;;;;;;21.92;14.13;;;3.30;99.90;;;;;;4940515;29;20034;-88
2021/01/06 02:09:01;;;;;;;19.90;13.10;;;3.20;99.90;;;;;;4923228;29;20028;-88
2021/01/06 02:11:44;;;;;;;19.98;12.52;;;3.20;99.90;;;;;;4935837;29;20050;-87
2021/01/06 02:14:15;;;;;;;17.95;11.57;;;3.20;99.90;;;;;;4935118;29;20164;-87
2021/01/06 02:17:09;;;;;;;22.08;12.27;;;3.20;99.90;;;;;;4937700;29;20038;-86
2021/01/06 02:19:41;;;;;;;21.25;12.63;;;3.20;99.90;;;;;;4953232;29;20055;-89
2021/01/06 02:22:09;;;;;;;21.90;11.15;;;3.10;99.90;;;;;;4921047;29;20045;-88
2021/01/06 02:24:38;;;;;;;21.35;11.73;;;3.10;99.90;;;;;;4920070;29;20043;-89
2021/01/06 02:27:04;;;;;;;20.30;11.60;;;3.10;99.90;;;;;;4923821;29;20028;-88
2021/01/06 02:29:32;;;;;;;25.35;11.88;;;3.00;99.90;;;;;;4921029;29;20055;-88
2021/01/06 02:31:58;;;;;;;25.15;11.27;;;3.00;99.90;;;;;;4919717;29;20090;-89
2021/01/06 02:34:25;;;;;;;18.05;10.73;;;3.00;99.90;;;;;;4919459;29;20050;-89
2021/01/06 02:36:52;;;;;;;19.25;11.23;;;3.00;99.90;;;;;;4919632;29;20354;-88
2021/01/06 02:39:18;;;;;;;18.38;11.68;;;3.00;99.90;;;;;;4918866;29;20055;-88
2021/01/06 02:41:47;;;;;;;22.02;11.45;;;3.00;99.90;;;;;;4919607;29;20059;-88
2021/01/06 02:44:14;;;;;;;18.48;11.20;;;3.00;99.90;;;;;;4919406;29;20031;-87
2021/01/06 02:46:41;;;;;;;20.02;11.50;;;3.00;99.90;;;;;;4919595;29;20032;-88
2021/01/06 02:49:09;;;;;;;23.15;11.20;;;3.00;99.90;;;;;;4936460;29;20152;-87
2021/01/06 02:51:59;;;;;;;21.80;11.90;;;3.00;99.90;;;;;;4919173;29;20024;-88
2021/01/06 02:54:32;;;;;;;17.88;11.45;;;2.90;99.90;;;;;;4936110;29;20027;-87
2021/01/06 02:56:59;;;;;;;18.42;11.70;;;2.90;99.90;;;;;;4936175;29;20027;-87
2021/01/06 02:59:33;;;;;;;18.25;10.73;;;2.90;99.90;;;;;;4936534;29;20119;-88
2021/01/06 03:02:00;;;;;;;19.88;11.15;;;2.90;99.90;;;;;;4938870;29;20019;-89
2021/01/06 03:04:29;;;;;;;19.42;11.05;;;2.90;99.90;;;;;;4924135;29;20122;-88
2021/01/06 03:06:59;;;;;;;20.20;10.65;;;2.90;99.90;;;;;;4923248;29;20028;-89
2021/01/06 03:09:45;;;;;;;16.38;10.25;;;2.90;99.90;;;;;;4940216;29;20023;-89
2021/01/06 03:12:32;;;;;;;21.10;11.15;;;2.80;99.90;;;;;;4922981;29;20564;-89
2021/01/06 03:14:59;;;;;;;14.65;9.20;;;2.80;99.90;;;;;;4922993;29;20039;-88
2021/01/06 03:17:29;;;;;;;18.60;9.77;;;2.90;99.90;;;;;;4922710;29;20474;-88
2021/01/06 03:20:24;;;;;;;20.92;9.77;;;2.80;99.90;;;;;;4939794;29;20032;-88
2021/01/06 03:22:59;;;;;;;13.27;9.45;;;2.80;99.90;;;;;;4920644;29;20070;-88
2021/01/06 03:25:28;;;;;;;20.23;9.15;;;2.90;99.90;;;;;;4922306;29;20064;-88
2021/01/06 03:27:55;;;;;;;16.98;9.90;;;2.90;99.90;;;;;;4922427;29;20035;-88
2021/01/06 03:30:30;;;;;;;15.23;9.65;;;2.90;99.90;;;;;;4922274;29;20040;-89
2021/01/06 03:33:20;;;;;;;19.17;8.63;;;2.80;99.90;;;;;;4922290;29;20051;-88
2021/01/06 03:35:52;;;;;;;16.90;8.50;;;2.80;99.90;;;;;;4922263;29;20039;-89
2021/01/06 03:38:45;;;;;;;21.42;9.45;;;2.80;99.90;;;;;;4922273;29;20063;-89
2021/01/06 03:41:12;;;;;;;15.85;8.32;;;2.80;99.90;;;;;;4922462;29;20055;-89
2021/01/06 03:43:43;;;;;;;14.20;8.30;;;2.90;99.90;;;;;;4922049;29;20028;-88
2021/01/06 03:46:51;;;;;;;17.95;8.27;;;2.90;99.90;;;;;;4925099;29;20434;-88
2021/01/06 03:49:30;;;;;;;16.08;8.82;;;2.90;99.90;;;;;;4922087;29;20115;-89
2021/01/06 03:52:08;;;;;;;15.80;7.65;;;2.80;99.90;;;;;;4921810;29;20023;-89
2021/01/06 03:54:47;;;;;;;18.35;8.68;;;2.80;99.90;;;;;;4921505;29;20092;-88
2021/01/06 03:57:14;;;;;;;18.30;8.65;;;2.80;99.90;;;;;;4921820;29;20083;-88
2021/01/06 03:59:43;;;;;;;15.23;8.05;;;2.90;99.90;;;;;;4921406;29;20042;-89
2021/01/06 04:02:16;;;;;;;16.88;8.73;;;2.90;99.90;;;;;;4921979;29;20027;-87
2021/01/06 04:04:58;;;;;;;12.65;7.60;;;2.90;99.90;;;;;;4921601;29;20031;-89
2021/01/06 04:07:27;;;;;;;13.45;8.20;;;2.90;99.90;;;;;;4922135;29;20039;-93
2021/01/06 04:09:58;;;;;;;13.13;7.70;;;2.90;99.90;;;;;;4938684;29;20394;-88
2021/01/06 04:12:24;;;;;;;15.35;8.38;;;3.00;99.90;;;;;;4921207;29;20032;-91
2021/01/06 04:14:50;;;;;;;14.43;8.57;;;2.90;99.90;;;;;;4920334;29;20039;-88
2021/01/06 04:17:50;;;;;;;17.90;7.95;;;3.00;99.90;;;;;;4905766;29;20062;-89
2021/01/06 04:20:35;;;;;;;14.48;8.57;;;3.00;99.90;;;;;;4916490;29;20066;-88
2021/01/06 04:23:08;;;;;;;15.57;8.10;;;2.90;99.90;;;;;;4921410;29;20035;-87
2021/01/06 04:25:38;;;;;;;19.25;8.93;;;2.90;99.90;;;;;;4938543;29;20067;-88
2021/01/06 04:28:25;;;;;;;14.30;8.50;;;2.90;99.90;;;;;;4938458;29;20036;-90
2021/01/06 04:31:00;;;;;;;12.50;8.23;;;3.00;99.90;;;;;;4921551;29;20126;-88
2021/01/06 04:33:28;;;;;;;;;;;3.00;99.90;;;;;;4921533;29;20051;-89
2021/01/06 04:35:55;;;;;;;16.45;7.80;;;3.00;99.90;;;;;;4923094;29;19919;-87
2021/01/06 04:38:27;;;;;;;16.58;9.05;;;2.90;99.90;;;;;;4932847;29;20139;-87
2021/01/06 04:41:00;;;;;;;16.50;9.50;;;2.90;99.90;;;;;;4925735;29;20035;-89
2021/01/06 04:43:47;;;;;;;14.55;8.63;;;2.80;99.90;;;;;;4930502;29;20035;-89
2021/01/06 04:46:25;;;;;;;17.70;9.32;;;2.80;99.90;;;;;;4925335;29;20039;-88
2021/01/06 04:49:01;;;;;;;14.63;8.02;;;2.90;99.90;;;;;;4923054;29;20024;-89
2021/01/06 04:51:37;;;;;;;16.67;8.43;;;2.90;99.90;;;;;;4938332;29;20466;-89
2021/01/06 04:54:09;;;;;;;16.10;7.93;;;2.90;99.90;;;;;;4938573;29;20080;-87
2021/01/06 04:56:44;;;;;;;13.35;8.20;;;2.90;99.90;;;;;;4920820;29;20062;-89
2021/01/06 04:59:50;;;;;;;12.85;8.35;;;2.90;99.90;;;;;;4921137;29;20389;-87
2021/01/06 05:02:31;;;;;;;14.15;8.93;;;2.80;99.90;;;;;;4920915;29;20485;-88
2021/01/06 05:05:34;;;;;;;14.95;8.35;;;2.70;99.90;;;;;;4923293;29;20032;-89
2021/01/06 05:08:37;;;;;;;13.38;7.88;;;2.70;99.90;;;;;;4921212;29;20123;-88
2021/01/06 05:11:25;;;;;;;20.13;8.32;;;2.70;99.90;;;;;;4920987;29;20028;-89
2021/01/06 05:14:11;;;;;;;16.25;8.35;;;2.70;99.90;;;;;;4920878;29;20042;-89
2021/01/06 05:16:56;;;;;;;17.35;8.35;;;2.80;99.90;;;;;;4920844;29;20071;-89
2021/01/06 05:19:29;;;;;;;17.98;8.98;;;2.70;99.90;;;;;;4920781;29;20175;-89
2021/01/06 05:21:56;;;;;;;15.88;8.35;;;2.70;99.90;;;;;;4937716;29;20070;-88
2021/01/06 05:24:45;;;;;;;13.38;7.57;;;2.80;99.90;;;;;;4920517;29;20027;-88
2021/01/06 05:27:13;;;;;;;17.05;8.40;;;2.80;99.90;;;;;;4920865;29;20027;-88
2021/01/06 05:29:42;;;;;;;14.18;7.72;;;2.80;99.90;;;;;;4920399;29;20379;-87
2021/01/06 05:32:17;;;;;;;15.35;7.90;;;2.70;99.90;;;;;;4922868;29;20091;-87
2021/01/06 05:34:44;;;;;;;15.77;7.90;;;2.70;99.90;;;;;;4920535;29;20039;-87
2021/01/06 05:37:15;;;;;;;16.55;8.75;;;2.70;99.90;;;;;;4921586;29;20115;-87
2021/01/06 05:39:41;;;;;;;18.15;8.85;;;2.60;99.90;;;;;;4919836;29;20064;-87
2021/01/06 05:42:15;;;;;;;16.35;8.30;;;2.70;99.90;;;;;;4920345;29;20139;-89
2021/01/06 05:44:41;;;;;;;16.58;8.65;;;2.70;99.90;;;;;;4919952;29;20191;-89
2021/01/06 05:47:17;;;;;;;13.43;8.73;;;2.70;99.90;;;;;;4920297;29;20517;-88
2021/01/06 05:49:44;;;;;;;17.88;9.00;;;2.70;99.90;;;;;;4937150;29;20052;-88
2021/01/06 05:52:15;;;;;;;15.73;9.18;;;2.80;99.90;;;;;;4920020;29;20032;-88
2021/01/06 05:54:48;;;;;;;18.67;8.98;;;2.70;99.90;;;;;;4919613;29;20051;-89
2021/01/06 05:57:33;;;;;;;17.60;8.85;;;2.80;99.90;;;;;;4920881;29;20050;-88
2021/01/06 06:00:30;;;;;;;20.08;8.73;;;2.80;99.90;;;;;;4936461;29;20023;-87
2021/01/06 06:03:40;;;;;;;19.95;10.32;;;2.80;99.90;;;;;;4936685;29;20028;-88
2021/01/06 06:06:36;;;;;;;24.60;9.95;;;2.80;99.90;;;;;;4919506;29;20035;-88
2021/01/06 06:09:26;;;;;;;16.05;9.52;;;2.80;99.90;;;;;;4919638;29;20023;-88
2021/01/06 06:12:34;;;;;;;20.13;9.23;;;2.80;99.90;;;;;;4919562;29;20034;-88
2021/01/06 06:15:23;;;;;;;15.68;9.70;;;2.70;99.90;;;;;;4900881;29;20043;-88
2021/01/06 06:18:17;;;;;;;14.10;8.80;;;2.70;99.90;;;;;;4919418;29;20031;-88
2021/01/06 06:21:20;;;;;;;17.83;9.52;;;2.70;99.90;;;;;;4919466;29;20028;-89
2021/01/06 06:24:23;;;;;;;14.30;9.15;;;2.70;99.90;;;;;;4919305;29;20126;-89
2021/01/06 06:27:19;;;;;;;15.70;9.40;;;2.70;99.90;;;;;;4919024;29;20035;-89
2021/01/06 06:29:56;;;;;;;16.23;9.30;;;2.70;99.90;;;;;;4919554;29;20028;-87
2021/01/06 06:32:32;;;;;;;15.50;10.07;;;2.70;99.90;;;;;;4921422;29;20059;-87
2021/01/06 06:35:26;;;;;;;15.48;9.25;;;2.70;99.90;;;;;;4923190;29;20036;-88
2021/01/06 06:38:00;;;;;;;15.13;9.10;;;2.80;99.90;;;;;;4933299;29;20043;-88
2021/01/06 06:40:45;;;;;;;14.45;9.00;;;2.90;99.90;;;;;;4937092;29;20179;-89
2021/01/06 06:43:34;;;;;;;13.90;8.77;;;2.90;99.90;;;;;;4919815;29;20036;-87
2021/01/06 06:46:17;;;;;;;18.73;8.93;;;3.00;99.90;;;;;;4919401;29;20041;-87
2021/01/06 06:49:11;;;;;;;16.55;8.80;;;2.90;99.90;;;;;;4919492;29;20032;-88
2021/01/06 06:51:52;;;;;;;14.88;9.20;;;2.90;99.90;;;;;;4919979;29;20020;-89
2021/01/06 06:54:50;;;;;;;17.83;9.68;;;3.00;99.90;;;;;;4919487;29;20110;-87
2021/01/06 06:57:31;;;;;;;13.90;8.57;;;2.90;99.90;;;;;;4920789;29;20036;-86
2021/01/06 07:00:18;;;;;;;20.10;10.55;;;2.90;99.90;;;;;;4923235;29;20027;-88
2021/01/06 07:02:50;;;;;;;21.85;11.02;;;2.80;99.90;;;;;;4927624;29;20075;-88
2021/01/06 07:05:37;;;;;;;17.88;9.07;;;2.80;99.90;;;;;;4920298;29;20466;-88
2021/01/06 07:08:09;;;;;;;18.50;9.40;;;2.90;99.90;;;;;;4919650;29;20051;-87
2021/01/06 07:10:43;;;;;;;19.00;9.60;;;2.90;99.90;;;;;;4936578;29;20028;-89
2021/01/06 07:13:17;;;;;;;13.80;8.50;;;2.90;99.90;;;;;;4936246;29;20031;-88
2021/01/06 07:16:06;;;;;;;19.63;10.52;;;2.90;99.90;;;;;;4919107;29;20046;-88
2021/01/06 07:18:45;;;;;;;17.70;10.05;;;2.90;99.90;;;;;;4919126;29;20032;-89
2021/01/06 07:21:17;;;;;;;19.98;10.68;;;2.80;99.90;;;;;;4920390;29;20569;-88
2021/01/06 07:23:59;;;;;;;20.52;10.38;;;2.90;99.90;;;;;;4919509;29;20034;-90
2021/01/06 07:26:42;;;;;;;18.35;10.05;;;2.90;99.90;;;;;;4921345;29;20499;-90
2021/01/06 07:29:17;;;;;;;14.55;9.30;;;2.90;99.90;;;;;;4937616;29;20430;-89
2021/01/06 07:32:09;;;;;;;15.55;9.68;;;2.80;99.90;;;;;;4937389;29;20150;-89
2021/01/06 07:34:49;;;;;;;17.52;8.68;;;2.90;99.90;;;;;;4938841;29;20043;-88
2021/01/06 07:37:36;;;;;;;15.98;9.10;;;2.90;99.90;;;;;;4941122;29;20036;-89
2021/01/06 07:40:24;;;;;;;18.25;10.27;;;2.90;99.90;;;;;;4929097;29;20031;-90
2021/01/06 07:43:21;;;;;;;18.35;10.55;;;2.90;99.90;;;;;;4921619;29;20462;-90
2021/01/06 07:45:54;;;;;;;22.58;10.38;;;2.90;99.90;;;;;;4919302;29;20027;-89
2021/01/06 07:48:22;;;;;;;21.10;11.32;;;2.90;99.90;;;;;;4921394;29;20187;-91
2021/01/06 07:51:14;;;;;;;17.63;9.90;;;2.90;99.90;;;;;;4944463;29;20083;-90
2021/01/06 07:54:35;;;;;;;19.27;10.85;;;3.00;99.90;;;;;;4910257;29;20393;-89
2021/01/06 07:57:01;;;;;;;18.02;10.30;;;3.00;99.90;;;;;;4898331;29;20043;-88
2021/01/06 07:59:54;;;;;;;17.77;10.13;;;3.00;99.90;;;;;;4926064;29;20035;-88
2021/01/06 08:03:05;;;;;;;20.30;11.40;;;2.90;99.90;;;;;;4928589;29;20028;-89
2021/01/06 08:05:34;;;;;;;22.50;10.45;;;2.90;99.90;;;;;;4940796;29;20039;-89
2021/01/06 08:08:15;;;;;;;16.92;11.05;;;2.90;99.90;;;;;;4923869;29;20039;-89
2021/01/06 08:10:43;;;;;;;23.85;10.80;;;3.00;99.90;;;;;;4929494;29;20047;-90
2021/01/06 08:13:32;;;;;;;21.48;11.85;;;2.90;99.90;;;;;;4944896;29;20031;-88
2021/01/06 08:16:06;;;;;;;22.35;11.43;;;2.90;99.90;;;;;;4932338;29;20095;-90
2021/01/06 08:18:42;;;;;;;23.45;11.68;;;3.00;99.90;;;;;;4931687;29;20039;-88
2021/01/06 08:21:28;;;;;;;19.60;11.75;;;3.00;99.90;;;;;;4928108;29;20055;-88
2021/01/06 08:24:05;;;;;;;17.70;10.63;;;3.00;99.90;;;;;;4928481;29;20032;-89
2021/01/06 08:26:32;;;;;;;22.15;12.02;;;3.00;99.90;;;;;;4928455;29;20084;-88
2021/01/06 08:29:08;;;;;;;19.52;11.60;;;3.10;99.90;;;;;;4914804;29;20036;-88
2021/01/06 08:31:36;;;;;;;17.50;10.60;;;3.10;99.90;;;;;;4937136;29;20034;-89
2021/01/06 08:34:03;;;;;;;18.83;10.93;;;3.10;99.90;;;;;;4936292;29;20074;-88
2021/01/06 08:36:36;;;;;;;21.50;11.40;;;2.90;99.90;;;;;;4937038;29;20032;-89
2021/01/06 08:39:26;;;;;;;19.92;11.27;;;3.00;99.90;;;;;;4939891;29;20083;-89
2021/01/06 08:41:55;;;;;;;18.85;11.63;;;3.00;99.90;;;;;;4943400;29;20032;-88
2021/01/06 08:44:37;;;;;;;19.92;11.68;;;3.10;99.90;;;;;;4943566;29;20079;-88
2021/01/06 08:47:05;;;;;;;25.30;12.10;;;3.00;99.90;;;;;;4934837;29;20027;-89
2021/01/06 08:49:38;;;;;;;21.38;11.40;;;3.00;99.90;;;;;;4935562;29;20028;-89
2021/01/06 08:52:16;;;;;;;24.98;12.98;;;2.90;99.90;;;;;;4935663;29;20122;-90
2021/01/06 08:54:43;;;;;;;22.02;12.55;;;2.90;99.90;;;;;;4940753;29;20035;-89
2021/01/06 08:57:28;;;;;;;22.77;12.00;;;2.90;99.90;;;;;;4958999;29;20036;-89
2021/01/06 08:59:53;;;;;;;20.55;11.68;;;2.90;99.90;;;;;;4944794;28;20063;-89
2021/01/06 09:02:41;;;;;;;24.70;12.20;;;3.10;99.90;;;;;;4944580;29;20023;-88
2021/01/06 09:05:33;;;;;;;17.60;10.65;;;3.00;99.90;;;;;;4943985;29;20039;-90
2021/01/06 09:08:07;;;;;;;19.45;11.70;;;3.00;99.90;;;;;;4941710;29;20067;-89
2021/01/06 09:10:38;;;;;;;23.80;11.57;;;3.00;99.90;;;;;;4941742;29;20034;-88
2021/01/06 09:13:30;;;;;;;20.00;11.65;;;3.10;99.90;;;;;;4941892;29;20063;-89
2021/01/06 09:16:12;;;;;;;22.08;11.43;;;3.20;99.90;;;;;;4932306;29;20032;-90
2021/01/06 09:18:44;;;;;;;19.80;12.27;;;3.30;99.90;;;;;;4929892;29;20031;-89
2021/01/06 09:21:21;;;;;;;20.48;11.60;;;3.30;99.90;;;;;;4927634;29;20060;-89
2021/01/06 09:23:50;;;;;;;21.08;11.25;;;3.30;99.90;;;;;;4928084;29;20012;-89
2021/01/06 09:26:21;;;;;;;21.50;12.95;;;3.20;99.90;;;;;;4950127;29;20046;-88
2021/01/06 09:28:57;;;;;;;21.23;12.40;;;3.20;99.90;;;;;;4950299;29;20051;-88
2021/01/06 09:31:24;;;;;;;21.50;12.63;;;3.30;99.90;;;;;;4927656;29;20036;-88
2021/01/06 09:33:51;;;;;;;22.08;12.82;;;3.30;99.90;;;;;;4911667;29;20112;-88
2021/01/06 09:36:17;;;;;;;22.70;12.20;;;3.30;99.90;;;;;;4926981;29;20040;-88
2021/01/06 09:38:49;;;;;;;23.88;12.88;;;3.40;99.90;;;;;;4941182;29;20508;-88
2021/01/06 09:41:23;;;;;;;24.63;14.25;;;3.40;99.90;;;;;;4943695;29;20103;-88
2021/01/06 09:44:05;;;;;;;22.63;13.20;;;3.40;99.90;;;;;;4924167;29;20035;-89
2021/01/06 09:46:44;;;;;;;20.13;12.27;;;3.40;99.90;;;;;;4939820;29;20118;-89
2021/01/06 09:49:18;;;;;;;27.77;13.82;;;3.40;99.90;;;;;;4938748;29;20024;-88
2021/01/06 09:51:52;;;;;;;20.77;12.57;;;3.40;99.90;;;;;;4922110;29;20103;-88
2021/01/06 09:54:21;;;;;;;26.08;12.45;;;3.50;99.90;;;;;;4939517;29;20032;-88
2021/01/06 09:56:55;;;;;;;22.85;13.05;;;3.40;99.90;;;;;;4939354;29;20031;-89
2021/01/06 09:59:33;;;;;;;20.88;11.55;;;3.40;99.90;;;;;;4919300;29;20036;-89
2021/01/06 10:02:09;;;;;;;21.92;11.65;;;3.40;99.90;;;;;;4903539;29;20474;-90
2021/01/06 10:04:40;;;;;;;16.95;11.18;;;3.40;99.90;;;;;;4915831;29;20032;-89
2021/01/06 10:07:35;;;;;;;23.67;11.50;;;3.40;99.90;;;;;;4906312;29;20028;-89
2021/01/06 10:10:13;;;;;;;24.67;11.23;;;3.40;99.90;;;;;;4906182;29;20044;-89
2021/01/06 10:13:15;;;;;;;22.15;11.23;;;3.40;99.90;;;;;;4907838;29;20091;-88
2021/01/06 10:16:12;;;;;;;21.08;11.98;;;3.50;99.90;;;;;;4907129;29;20247;-88
2021/01/06 10:18:38;;;;;;;19.63;10.55;;;3.50;99.90;;;;;;4904429;29;20123;-88
2021/01/06 10:21:31;;;;;;;25.92;11.73;;;3.60;99.90;;;;;;4903434;29;20070;-88
2021/01/06 10:24:44;;;;;;;19.20;10.63;;;3.60;99.90;;;;;;4926838;29;20083;-88
2021/01/06 10:27:32;;;;;;;17.48;9.82;;;3.70;99.90;;;;;;4864098;29;20068;-87
2021/01/06 10:30:15;;;;;;;15.55;9.30;;;3.60;99.90;;;;;;4905421;29;20028;-88
2021/01/06 10:32:51;;;;;;;17.88;10.57;;;3.50;99.90;;;;;;4903006;29;20083;-88
2021/01/06 10:35:27;;;;;;;19.10;9.32;;;3.50;99.90;;;;;;4902038;29;20130;-89
2021/01/06 10:37:57;;;;;;;15.85;8.20;;;3.50;99.90;;;;;;4900321;29;20040;-89
2021/01/06 10:40:53;;;;;;;18.58;9.05;;;3.70;99.90;;;;;;4900801;29;20475;-87
2021/01/06 10:43:34;;;;;;;22.17;8.70;;;3.80;99.90;;;;;;4897154;29;20036;-88
2021/01/06 10:46:22;;;;;;;16.65;8.98;;;3.90;99.90;;;;;;4900891;29;20097;-88
2021/01/06 10:48:49;;;;;;;20.88;7.78;;;3.80;99.90;;;;;;4899752;29;20104;-88
2021/01/06 10:52:06;;;;;;;20.20;8.23;;;3.80;99.90;;;;;;4915745;29;20067;-88
2021/01/06 10:54:49;;;;;;;14.18;7.40;;;3.80;99.90;;;;;;4869047;29;20513;-88
2021/01/06 10:57:34;;;;;;;20.15;8.25;;;3.80;99.90;;;;;;4900074;29;20032;-87
2021/01/06 11:00:12;;;;;;;17.65;8.82;;;3.80;99.90;;;;;;4900321;29;20065;-89
2021/01/06 11:03:01;;;;;;;17.98;7.82;;;3.80;99.90;;;;;;4901673;29;20032;-88
2021/01/06 11:05:33;;;;;;;21.88;9.05;;;3.80;99.90;;;;;;4909670;29;20047;-89
2021/01/06 11:08:26;;;;;;;19.90;8.98;;;3.70;99.90;;;;;;4903860;29;20032;-89
2021/01/06 11:11:22;;;;;;;16.90;7.72;;;3.90;99.90;;;;;;4904000;29;20124;-87
2021/01/06 11:14:27;;;;;;;15.48;7.25;;;3.90;99.90;;;;;;4908441;29;20099;-86
2021/01/06 11:17:10;;;;;;;14.73;8.07;;;3.90;99.90;;;;;;4908929;29;20036;-90
2021/01/06 11:19:49;;;;;;;17.27;8.73;;;4.00;99.90;;;;;;4901377;29;20296;-89
2021/01/06 11:22:43;;;;;;;12.90;7.50;;;4.10;99.90;;;;;;4900416;29;20028;-88
2021/01/06 11:25:49;;;;;;;18.60;7.47;;;4.10;99.90;;;;;;4904480;29;20028;-89
2021/01/06 11:28:52;;;;;;;16.67;7.57;;;4.00;99.90;;;;;;4904638;29;20032;-89
2021/01/06 11:31:35;;;;;;;17.67;7.10;;;4.00;99.90;;;;;;4922124;29;20028;-88
2021/01/06 11:34:10;;;;;;;12.13;6.95;;;4.00;99.90;;;;;;4904449;29;20056;-89
2021/01/06 11:36:45;;;;;;;11.57;6.40;;;4.00;99.90;;;;;;4903890;29;20123;-90
2021/01/06 11:39:37;;;;;;;17.42;7.32;;;4.00;99.90;;;;;;4904161;29;20382;-89
2021/01/06 11:42:10;;;;;;;16.58;7.07;;;4.10;99.90;;;;;;4891724;29;20039;-90
2021/01/06 11:45:16;;;;;;;12.85;5.88;;;4.00;99.90;;;;;;4920656;29;20055;-90
2021/01/06 11:48:16;;;;;;;15.23;6.72;;;3.90;99.90;;;;;;4897991;29;20044;-89
2021/01/06 11:50:48;;;;;;;14.55;6.47;;;4.00;99.90;;;;;;4893047;29;20060;-89
2021/01/06 11:53:30;;;;;;;13.38;6.75;;;4.00;99.90;;;;;;4897342;29;20051;-90
2021/01/06 11:56:02;;;;;;;17.38;7.07;;;4.20;99.90;;;;;;4921344;29;20028;-89
2021/01/06 11:58:54;;;;;;;19.92;6.38;;;4.10;99.90;;;;;;4908983;29;20490;-90
2021/01/06 12:01:50;;;;;;;18.48;6.53;;;4.20;99.90;;;;;;4885810;29;20107;-89
2021/01/06 12:04:23;;;;;;;14.75;7.13;;;4.10;99.90;;;;;;4910064;29;20028;-87
2021/01/06 12:07:15;;;;;;;10.25;5.70;;;4.20;99.90;;;;;;4922977;29;20126;-89
2021/01/06 12:09:54;;;;;;;13.70;5.78;;;4.20;99.90;;;;;;4938516;29;20020;-89
2021/01/06 12:12:52;;;;;;;13.95;6.07;;;4.20;99.90;;;;;;4925715;29;20024;-91
2021/01/06 12:15:42;;;;;;;10.73;5.57;;;4.20;99.90;;;;;;4928411;29;20099;-91
2021/01/06 12:18:41;;;;;;;17.20;5.90;;;4.30;99.90;;;;;;4930966;29;20036;-90
2021/01/06 12:21:36;;;;;;;16.88;5.95;;;4.30;99.90;;;;;;4927779;29;20046;-91
2021/01/06 12:24:29;;;;;;;11.20;4.80;;;4.20;99.90;;;;;;4923016;29;20027;-90
2021/01/06 12:27:25;;;;;;;16.85;5.50;;;4.30;99.90;;;;;;4940298;29;20113;-91
2021/01/06 12:30:01;;;;;;;10.88;4.72;;;4.30;99.90;;;;;;4942119;29;20214;-90
2021/01/06 12:33:14;;;;;;;7.53;4.20;;;4.30;99.90;;;;;;4923346;29;20122;-90
2021/01/06 12:35:44;;;;;;;12.98;5.97;;;4.30;99.90;;;;;;4882218;29;20032;-90
2021/01/06 12:38:19;;;;;;;14.65;5.85;;;4.30;99.90;;;;;;4933204;29;20055;-90
2021/01/06 12:41:08;;;;;;;12.77;5.07;;;4.30;99.90;;;;;;4921898;29;20024;-90
2021/01/06 12:44:03;;;;;;;16.42;6.15;;;4.30;99.90;;;;;;4921881;29;20087;-90
2021/01/06 12:46:35;;;;;;;13.00;5.80;;;4.40;99.90;;;;;;4914449;29;20470;-90
2021/01/06 12:49:52;;;;;;;10.63;4.93;;;4.30;99.90;;;;;;4937591;29;20083;-89
2021/01/06 12:52:27;;;;;;;20.15;5.40;;;4.20;99.90;;;;;;4911132;29;20044;-90
2021/01/06 12:55:14;;;;;;;18.75;7.80;;;4.30;99.90;;;;;;4922185;29;20027;-91
2021/01/06 12:58:12;;;;;;;16.17;4.90;;;4.30;99.90;;;;;;4922895;29;20036;-91
2021/01/06 13:00:44;;;;;;;15.50;5.38;;;4.50;99.90;;;;;;4920864;29;20754;-90
2021/01/06 13:03:28;;;;;;;13.55;4.13;;;4.40;99.90;;;;;;4921176;29;20028;-90
2021/01/06 13:06:00;;;;;;;11.15;4.00;;;4.30;99.90;;;;;;4937492;29;20032;-90
2021/01/06 13:08:49;;;;;;;10.50;4.68;;;4.30;99.90;;;;;;4921927;29;20054;-89
2021/01/06 13:11:42;;;;;;;8.20;4.00;;;4.40;99.90;;;;;;4938418;29;20034;-90
2021/01/06 13:14:36;;;;;;;19.30;6.57;;;4.40;99.90;;;;;;4918054;29;20036;-88
2021/01/06 13:17:21;;;;;;;8.23;4.63;;;4.50;99.90;;;;;;4938422;29;20066;-89
2021/01/06 13:19:59;;;;;;;14.10;4.57;;;4.50;99.90;;;;;;4919685;29;20039;-90
2021/01/06 13:22:46;;;;;;;14.20;5.65;;;4.50;99.90;;;;;;4936779;29;20038;-90
2021/01/06 13:25:39;;;;;;;7.82;4.63;;;4.50;99.90;;;;;;4919875;29;20055;-89
2021/01/06 13:28:17;;;;;;;10.63;4.70;;;4.50;99.90;;;;;;4936812;29;20095;-88
2021/01/06 13:31:04;;;;;;;11.00;5.85;;;4.50;99.90;;;;;;4936428;29;20031;-90
2021/01/06 13:33:59;;;;;;;12.18;5.22;;;4.60;99.90;;;;;;4937806;29;20387;-89
2021/01/06 13:36:37;;;;;;;10.45;5.00;;;4.60;99.90;;;;;;4920690;29;20050;-89
2021/01/06 13:39:30;;;;;;;11.90;5.30;;;4.60;99.90;;;;;;4920989;29;20434;-89
2021/01/06 13:41:59;;;;;;;13.35;4.90;;;4.50;99.90;;;;;;4920100;29;20090;-89
2021/01/06 13:44:45;;;;;;;9.75;4.18;;;4.30;99.90;;;;;;4919185;29;20450;-89